Time;durP1;ratioP1;P1;durP2;ratioP2;P2;SDS_P1;SDS_P2;PMS_P1;PMS_P2;Temp;Humidity;BMP_temperature;BMP_pressure;BME280_temperature;BME280_humidity;BME280_pressure;Samples;Min_cycle;Max_cycle;Signal;HPM_P1;HPM_P2
2023/10/08 00:03:40;;;;;;;0.00;0.00;;;;;;;13.11;77.05;101398.81;15608846;28;20042;-49
2023/10/08 00:11:15;;;;;;;0.00;0.00;;;;;;;12.89;78.17;101418.94;15615865;28;20368;-50
2023/10/08 00:18:50;;;;;;;0.30;0.30;;;;;;;12.95;77.59;101407.31;15616102;28;20490;-54
2023/10/08 00:26:27;;;;;;;0.28;0.28;;;;;;;12.85;78.39;101404.22;15615624;28;20050;-51
2023/10/08 00:34:05;;;;;;;0.00;0.00;;;;;;;12.69;79.22;101403.63;15604230;28;20081;-49
2023/10/08 00:41:39;;;;;;;0.00;0.00;;;;;;;12.82;78.37;101421.63;15600762;28;20124;-55
2023/10/08 00:49:35;;;;;;;0.00;0.00;;;;;;;12.51;79.81;101433.03;15609495;28;20044;-48
2023/10/08 00:57:16;;;;;;;0.00;0.00;;;;;;;12.39;78.74;101446.25;15607154;28;20445;-53
2023/10/08 01:04:51;;;;;;;0.00;0.00;;;;;;;12.42;79.14;101445.03;15596564;28;20053;-51
2023/10/08 01:12:26;;;;;;;0.00;0.00;;;;;;;12.24;80.17;101443.75;15608240;28;20068;-50
2023/10/08 01:20:10;;;;;;;0.00;0.00;;;;;;;12.12;80.43;101455.31;15612171;28;20158;-50
2023/10/08 01:27:47;;;;;;;0.03;0.03;;;;;;;12.48;79.01;101471.97;15592669;28;20057;-48
2023/10/08 01:35:23;;;;;;;0.05;0.05;;;;;;;12.21;80.03;101484.53;15611279;28;20513;-49
2023/10/08 01:43:00;;;;;;;0.00;0.00;;;;;;;12.07;80.35;101473.94;15611172;28;20042;-51
2023/10/08 01:50:35;;;;;;;0.00;0.00;;;;;;;12.34;79.68;101491.00;15601260;28;20046;-51
2023/10/08 01:58:11;;;;;;;0.95;0.55;;;;;;;12.05;80.39;101508.28;15606656;28;20538;-52
2023/10/08 02:05:45;;;;;;;0.00;0.00;;;;;;;12.26;79.38;101529.69;15603354;28;20045;-51
2023/10/08 02:13:20;;;;;;;0.00;0.00;;;;;;;12.37;78.63;101537.19;15609882;28;20152;-50
2023/10/08 02:20:54;;;;;;;0.63;0.63;;;;;;;11.80;81.34;101518.69;15603553;28;20063;-53
2023/10/08 02:28:28;;;;;;;0.00;0.00;;;;;;;12.21;79.54;101545.59;15609205;28;20066;-52
2023/10/08 02:36:04;;;;;;;0.00;0.00;;;;;;;12.11;80.46;101569.38;15606531;28;20186;-51
2023/10/08 02:43:39;;;;;;;0.00;0.00;;;;;;;11.86;81.68;101563.66;15627057;28;20535;-50
2023/10/08 02:51:14;;;;;;;0.00;0.00;;;;;;;12.06;80.14;101575.34;15620197;28;20116;-51
2023/10/08 02:58:51;;;;;;;0.47;0.47;;;;;;;12.29;79.42;101572.34;15614186;28;20418;-49
2023/10/08 03:06:24;;;;;;;0.75;0.30;;;;;;;11.94;80.88;101587.72;15618325;28;20053;-50
2023/10/08 03:13:59;;;;;;;0.40;0.40;;;;;;;12.09;79.88;101591.09;15601824;28;20041;-48
2023/10/08 03:21:48;;;;;;;1.17;0.65;;;;;;;12.14;79.99;101564.44;15617341;28;20041;-49
2023/10/08 03:29:30;;;;;;;0.00;0.00;;;;;;;12.50;78.56;101590.25;15636472;23;20521;-52
2023/10/08 03:37:06;;;;;;;0.00;0.00;;;;;;;12.14;79.51;101588.66;15606678;28;20104;-51
2023/10/08 03:44:42;;;;;;;0.00;0.00;;;;;;;12.42;78.49;101622.75;15603758;28;20037;-55
2023/10/08 03:52:15;;;;;;;0.35;0.35;;;;;;;12.11;79.67;101648.25;15597136;28;20046;-53
2023/10/08 03:59:55;;;;;;;0.00;0.00;;;;;;;11.98;80.27;101675.91;15593911;28;20069;-52
2023/10/08 04:07:39;;;;;;;0.70;0.50;;;;;;;12.03;80.47;101658.31;15597117;28;20045;-54
2023/10/08 04:15:16;;;;;;;0.45;0.35;;;;;;;12.29;78.93;101674.66;15613747;28;20410;-52
2023/10/08 04:22:50;;;;;;;0.00;0.00;;;;;;;12.07;79.15;101695.41;15616930;28;20052;-54
2023/10/08 04:30:32;;;;;;;0.00;0.00;;;;;;;11.99;80.02;101704.50;15661549;28;20076;-53
2023/10/08 04:38:08;;;;;;;0.00;0.00;;;;;;;12.15;79.46;101737.50;15675714;28;20053;-52
2023/10/08 04:45:43;;;;;;;0.00;0.00;;;;;;;12.28;78.71;101729.53;15672053;28;20123;-52
2023/10/08 04:53:16;;;;;;;0.70;0.70;;;;;;;12.24;79.32;101729.06;15667102;28;20593;-52
2023/10/08 05:00:59;;;;;;;0.00;0.00;;;;;;;12.47;78.51;101728.81;15667841;28;20044;-54
2023/10/08 05:08:47;;;;;;;0.00;0.00;;;;;;;12.49;77.35;101764.44;15668100;28;20041;-54
2023/10/08 05:16:35;;;;;;;0.30;0.30;;;;;;;12.32;78.35;101779.25;15643927;28;20423;-55
2023/10/08 05:24:14;;;;;;;0.22;0.22;;;;;;;11.82;80.84;101809.84;15657714;28;20041;-56
2023/10/08 05:32:17;;;;;;;0.13;0.13;;;;;;;12.19;79.11;101814.13;15630826;28;20566;-52
2023/10/08 05:39:46;;;;;;;0.00;0.00;;;;;;;12.22;78.75;101821.84;15674334;28;20041;-53
2023/10/08 05:47:38;;;;;;;0.13;0.13;;;;;;;11.83;79.30;101824.97;15673776;28;20080;-52
2023/10/08 05:55:22;;;;;;;0.00;0.00;;;;;;;11.84;78.99;101834.72;15668082;28;20042;-52
2023/10/08 06:11:00;;;;;;;0.40;0.30;;;;;;;12.43;77.20;101883.72;15630670;28;20041;-52
2023/10/08 06:18:37;;;;;;;0.00;0.00;;;;;;;12.35;77.61;101904.56;15669682;28;20049;-53
2023/10/08 06:26:15;;;;;;;0.00;0.00;;;;;;;12.49;77.40;101915.25;15681750;28;20049;-52
2023/10/08 06:33:50;;;;;;;0.00;0.00;;;;;;;12.28;77.31;101911.75;15685660;28;20448;-53
2023/10/08 06:41:33;;;;;;;4.57;1.98;;;;;;;12.38;77.74;101937.31;15666113;28;20072;-52
2023/10/08 06:49:11;;;;;;;;;;;;;;;12.78;76.36;101956.53;15626050;28;20052;-54
2023/10/08 06:56:51;;;;;;;0.03;0.03;;;;;;;12.92;75.47;101970.94;15639729;28;19966;-53
2023/10/08 07:04:26;;;;;;;0.00;0.00;;;;;;;12.67;73.91;101975.91;15671034;28;20041;-55
2023/10/08 07:12:05;;;;;;;0.85;0.43;;;;;;;13.21;73.42;101989.59;15656344;28;20091;-54
2023/10/08 07:19:40;;;;;;;0.00;0.00;;;;;;;14.04;71.57;101989.66;15662148;28;20037;-55
2023/10/08 07:27:14;;;;;;;0.00;0.00;;;;;;;14.41;69.63;102012.59;15656029;28;20135;-52
2023/10/08 07:34:57;;;;;;;0.00;0.00;;;;;;;14.17;67.29;102011.28;15673463;28;20033;-53
2023/10/08 07:42:30;;;;;;;0.90;0.73;;;;;;;14.09;67.09;102032.25;15676570;28;20095;-52
2023/10/08 07:50:11;;;;;;;0.00;0.00;;;;;;;14.91;66.28;102026.63;15657627;28;20052;-52
2023/10/08 07:57:45;;;;;;;0.00;0.00;;;;;;;15.12;65.02;102028.28;15661011;28;20128;-51
2023/10/08 08:05:20;;;;;;;0.00;0.00;;;;;;;15.15;62.38;102040.56;15661516;28;20075;-53
2023/10/08 08:12:56;;;;;;;0.00;0.00;;;;;;;14.84;64.98;102052.00;15678757;28;20419;-52
2023/10/08 08:20:38;;;;;;;0.00;0.00;;;;;;;15.11;61.85;102061.78;15669297;28;20095;-52
2023/10/08 08:28:16;;;;;;;0.17;0.13;;;;;;;14.88;59.54;102072.19;15674328;28;20084;-51
2023/10/08 08:36:00;;;;;;;0.00;0.00;;;;;;;14.98;58.43;102078.00;15669242;28;20531;-52
2023/10/08 08:43:35;;;;;;;0.00;0.00;;;;;;;16.05;55.45;102087.69;15659756;28;20048;-53
2023/10/08 08:51:10;;;;;;;0.00;0.00;;;;;;;16.62;55.97;102090.56;15672506;28;20053;-55
2023/10/08 08:58:45;;;;;;;0.00;0.00;;;;;;;16.46;56.80;102092.72;15655121;28;20049;-52
2023/10/08 09:06:20;;;;;;;0.00;0.00;;;;;;;17.11;49.63;102103.38;15658248;28;20132;-52
2023/10/08 09:13:56;;;;;;;0.00;0.00;;;;;;;16.66;51.26;102065.50;15678214;28;20094;-54
2023/10/08 09:21:31;;;;;;;0.00;0.00;;;;;;;17.59;51.83;102105.50;15675261;28;20032;-53
2023/10/08 09:29:07;;;;;;;0.00;0.00;;;;;;;17.69;47.30;102116.66;15576162;22;20517;-58
2023/10/08 09:36:42;;;;;;;0.00;0.00;;;;;;;17.08;48.11;102115.53;15564400;28;20072;-55
2023/10/08 09:44:19;;;;;;;0.00;0.00;;;;;;;18.18;46.54;102123.06;15520279;28;20046;-54
2023/10/08 09:51:55;;;;;;;0.00;0.00;;;;;;;18.40;44.66;102134.31;15492741;28;20467;-57
2023/10/08 09:59:29;;;;;;;0.00;0.00;;;;;;;16.82;45.03;102140.94;15504091;28;20092;-59
2023/10/08 10:07:12;;;;;;;0.00;0.00;;;;;;;18.61;42.52;102138.44;15553118;28;20406;-57
2023/10/08 10:14:47;;;;;;;0.20;0.20;;;;;;;17.73;41.00;102139.66;15556108;28;20042;-59
2023/10/08 10:22:30;;;;;;;0.00;0.00;;;;;;;18.26;41.31;102155.38;15556299;28;20057;-58
2023/10/08 10:30:08;;;;;;;0.00;0.00;;;;;;;18.96;38.86;102157.63;15538503;28;20146;-62
2023/10/08 10:37:43;;;;;;;0.00;0.00;;;;;;;18.84;39.72;102173.09;15555692;28;20038;-59
2023/10/08 10:45:35;;;;;;;0.00;0.00;;;;;;;18.71;39.92;102163.22;15536942;28;20093;-60
2023/10/08 10:53:11;;;;;;;0.55;0.30;;;;;;;19.48;38.96;102157.03;15493666;28;20061;-59
2023/10/08 11:00:57;;;;;;;0.00;0.00;;;;;;;19.32;35.87;102161.28;15531245;28;20133;-57
2023/10/08 11:08:34;;;;;;;0.00;0.00;;;;;;;19.56;34.68;102164.88;15551816;28;20042;-57
2023/10/08 11:16:09;;;;;;;0.00;0.00;;;;;;;20.16;34.33;102159.19;15548564;28;20129;-55
2023/10/08 11:23:55;;;;;;;0.00;0.00;;;;;;;19.80;34.49;102152.13;15550367;28;20180;-56
2023/10/08 11:31:29;;;;;;;0.20;0.20;;;;;;;20.78;33.14;102145.75;15549628;28;20054;-58
2023/10/08 11:39:21;;;;;;;0.38;0.20;;;;;;;19.95;36.82;102154.34;15552191;28;20046;-58
2023/10/08 11:47:00;;;;;;;0.43;0.28;;;;;;;20.12;31.16;102158.84;15502429;28;20042;-60
2023/10/08 11:54:36;;;;;;;0.00;0.00;;;;;;;19.82;31.04;102152.72;15490389;28;20403;-59
2023/10/08 12:02:09;;;;;;;0.00;0.00;;;;;;;21.59;32.16;102156.44;15539834;28;20049;-55
2023/10/08 12:09:43;;;;;;;0.00;0.00;;;;;;;21.98;29.44;102156.50;15549022;28;20493;-59
2023/10/08 12:17:17;;;;;;;0.45;0.38;;;;;;;22.27;30.49;102143.50;15549683;28;20507;-58
2023/10/08 12:24:52;;;;;;;0.00;0.00;;;;;;;22.18;31.89;102134.91;15548117;28;20439;-58
2023/10/08 12:32:26;;;;;;;0.00;0.00;;;;;;;21.67;28.64;102134.16;15544126;28;20049;-58
2023/10/08 12:40:11;;;;;;;0.00;0.00;;;;;;;20.66;33.02;102138.69;15548429;28;20038;-58
2023/10/08 12:47:46;;;;;;;0.00;0.00;;;;;;;20.45;32.44;102121.06;15489516;28;20078;-57
2023/10/08 12:55:23;;;;;;;0.00;0.00;;;;;;;20.46;33.49;102120.81;15465781;28;20423;-59
2023/10/08 13:02:57;;;;;;;0.00;0.00;;;;;;;18.93;34.35;102125.47;15542642;28;20092;-58
2023/10/08 13:10:32;;;;;;;0.25;0.25;;;;;;;17.85;36.75;102121.53;15546906;28;20038;-59
2023/10/08 13:18:06;;;;;;;0.00;0.00;;;;;;;18.39;35.32;102127.22;15511994;28;20056;-57
2023/10/08 13:25:40;;;;;;;0.00;0.00;;;;;;;18.44;36.34;102124.63;15546119;28;20065;-59
2023/10/08 13:33:14;;;;;;;0.00;0.00;;;;;;;18.18;37.43;102133.94;15528318;28;20077;-58
2023/10/08 13:48:36;;;;;;;0.00;0.00;;;;;;;16.51;38.46;102130.03;15498423;28;20435;-58
2023/10/08 13:56:13;;;;;;;0.00;0.00;;;;;;;16.25;41.38;102141.78;15487504;28;20047;-54
2023/10/08 14:03:48;;;;;;;0.43;0.43;;;;;;;17.01;39.51;102147.28;15543042;28;20038;-57
2023/10/08 14:11:23;;;;;;;0.00;0.00;;;;;;;16.59;41.46;102122.44;15543879;28;20038;-57
2023/10/08 14:18:59;;;;;;;0.00;0.00;;;;;;;16.87;39.66;102139.44;15546042;28;20038;-59
2023/10/08 14:26:36;;;;;;;0.00;0.00;;;;;;;17.33;40.19;102142.66;15544602;28;20041;-58
2023/10/08 14:34:29;;;;;;;0.05;0.05;;;;;;;16.76;40.93;102140.97;15532002;28;20030;-55
2023/10/08 14:49:54;;;;;;;0.00;0.00;;;;;;;16.86;44.02;102132.38;15515116;28;20124;-54
2023/10/08 14:57:30;;;;;;;0.00;0.00;;;;;;;17.04;41.24;102127.03;15515346;28;20069;-56
2023/10/08 15:05:05;;;;;;;0.00;0.00;;;;;;;16.26;42.92;102135.31;15533903;28;20046;-58
2023/10/08 15:12:40;;;;;;;0.00;0.00;;;;;;;16.37;46.50;102139.22;15536987;28;20419;-58
2023/10/08 15:20:16;;;;;;;0.00;0.00;;;;;;;16.30;44.40;102141.97;15551210;28;20091;-56
2023/10/08 15:27:51;;;;;;;0.90;0.38;;;;;;;16.01;46.96;102144.16;15502452;22;20051;-52
2023/10/08 15:35:24;;;;;;;0.00;0.00;;;;;;;15.70;47.87;102144.00;15495825;28;20455;-48
2023/10/08 15:42:59;;;;;;;0.10;0.08;;;;;;;15.59;49.78;102152.72;15496200;28;20049;-48
2023/10/08 15:50:32;;;;;;;0.00;0.00;;;;;;;15.52;50.80;102160.81;15437828;28;20053;-48
2023/10/08 15:58:07;;;;;;;0.00;0.00;;;;;;;15.42;51.75;102160.41;15454145;28;20478;-48
2023/10/08 16:05:42;;;;;;;0.75;0.75;;;;;;;15.40;51.47;102168.75;15496505;28;20045;-50
2023/10/08 16:13:16;;;;;;;0.10;0.10;;;;;;;15.31;53.25;102164.56;15477835;28;20042;-47
2023/10/08 16:20:50;;;;;;;0.10;0.10;;;;;;;14.94;55.02;102185.72;15491861;28;20105;-52
2023/10/08 16:28:24;;;;;;;1.55;0.40;;;;;;;14.96;55.48;102182.81;15490688;28;20054;-50
2023/10/08 16:35:59;;;;;;;0.10;0.10;;;;;;;14.91;55.12;102182.59;15470425;28;20038;-49
2023/10/08 16:43:34;;;;;;;0.10;0.10;;;;;;;14.60;56.24;102181.25;15465354;28;20050;-50
2023/10/08 16:51:07;;;;;;;0.00;0.00;;;;;;;14.66;56.26;102177.72;15416405;28;20078;-48
2023/10/08 16:58:42;;;;;;;0.47;0.45;;;;;;;14.62;57.95;102175.63;15444908;28;20098;-50
2023/10/08 17:06:15;;;;;;;0.00;0.00;;;;;;;14.57;57.76;102167.31;15432769;28;20050;-51
2023/10/08 17:13:49;;;;;;;0.20;0.20;;;;;;;14.66;56.70;102163.41;15432155;28;20491;-49
2023/10/08 17:21:28;;;;;;;0.15;0.15;;;;;;;14.54;59.31;102174.75;15431797;28;20046;-48
2023/10/08 17:29:03;;;;;;;0.17;0.17;;;;;;;14.39;58.69;102163.25;15445708;28;20529;-49
2023/10/08 17:36:37;;;;;;;0.20;0.20;;;;;;;14.55;59.63;102151.31;15474456;28;20474;-47
2023/10/08 17:44:14;;;;;;;0.10;0.10;;;;;;;14.41;59.98;102130.59;15483632;28;20559;-47
2023/10/08 17:51:47;;;;;;;0.17;0.10;;;;;;;14.30;59.47;102132.03;15445910;28;20043;-48
2023/10/08 17:59:22;;;;;;;0.28;0.28;;;;;;;14.35;59.95;102123.31;15457359;28;20403;-48
2023/10/08 18:06:56;;;;;;;0.32;0.30;;;;;;;14.28;61.23;102143.03;15466771;28;20407;-48
2023/10/08 18:14:30;;;;;;;0.85;0.55;;;;;;;14.24;59.90;102112.06;15471740;28;20049;-49
2023/10/08 18:22:03;;;;;;;0.22;0.20;;;;;;;14.03;57.27;102114.84;15473519;28;20061;-48
2023/10/08 18:29:39;;;;;;;0.00;0.00;;;;;;;14.30;60.34;102100.44;15426209;28;20047;-49
2023/10/08 18:37:12;;;;;;;0.10;0.10;;;;;;;14.18;57.42;102098.53;15442159;28;20039;-50
2023/10/08 18:44:46;;;;;;;0.20;0.20;;;;;;;14.16;57.18;102114.94;15489760;28;20057;-50
2023/10/08 18:52:20;;;;;;;0.10;0.10;;;;;;;13.99;60.55;102117.13;15452826;28;20043;-48
2023/10/08 18:59:54;;;;;;;0.10;0.10;;;;;;;14.11;56.57;102103.06;15471364;28;20050;-50
2023/10/08 19:07:28;;;;;;;0.00;0.00;;;;;;;13.85;59.85;102112.69;15497688;28;20039;-48
2023/10/08 19:15:04;;;;;;;0.05;0.05;;;;;;;13.87;60.65;102097.13;15469043;28;20085;-49
2023/10/08 19:22:37;;;;;;;0.00;0.00;;;;;;;13.68;59.59;102071.69;15466751;28;20053;-50
2023/10/08 19:30:13;;;;;;;0.05;0.05;;;;;;;13.74;58.96;102054.69;15496510;28;20384;-48
2023/10/08 19:37:47;;;;;;;0.00;0.00;;;;;;;13.48;60.06;102062.63;15480709;28;20046;-48
2023/10/08 19:45:21;;;;;;;0.00;0.00;;;;;;;12.84;62.00;102066.22;15449705;28;20043;-47
2023/10/08 19:52:54;;;;;;;0.47;0.47;;;;;;;13.40;61.01;102066.31;15437185;28;20051;-51
2023/10/08 20:00:29;;;;;;;0.10;0.10;;;;;;;13.43;60.77;102060.53;15438859;28;20072;-50
2023/10/08 20:08:03;;;;;;;1.25;0.55;;;;;;;13.29;62.65;102064.16;15466568;28;20644;-49
2023/10/08 20:15:38;;;;;;;0.00;0.00;;;;;;;13.20;61.92;102033.78;15477311;28;20038;-48
2023/10/08 20:23:12;;;;;;;0.00;0.00;;;;;;;12.91;62.01;102012.38;15435688;28;20054;-48
2023/10/08 20:30:48;;;;;;;1.27;0.70;;;;;;;13.01;61.74;102031.75;15417818;28;20041;-48
2023/10/08 20:38:23;;;;;;;0.08;0.08;;;;;;;13.16;62.28;102026.28;15467980;28;20050;-48
2023/10/08 20:45:57;;;;;;;2.72;1.17;;;;;;;12.65;64.85;102035.38;15493355;28;20558;-54
2023/10/08 20:53:32;;;;;;;0.20;0.20;;;;;;;13.24;63.14;102047.72;15491275;28;20062;-48
2023/10/08 21:01:10;;;;;;;0.00;0.00;;;;;;;13.21;62.80;102046.22;15474600;28;20073;-48
2023/10/08 21:08:43;;;;;;;1.00;0.73;;;;;;;12.17;63.79;102018.91;15492890;28;20042;-48
2023/10/08 21:16:20;;;;;;;0.00;0.00;;;;;;;12.96;61.12;102010.78;15465616;28;20038;-48
2023/10/08 21:23:54;;;;;;;8.27;5.72;;;;;;;12.63;60.75;101999.69;15415036;28;20121;-51
2023/10/08 21:31:28;;;;;;;0.22;0.22;;;;;;;12.70;61.40;101986.31;15431607;28;20047;-51
2023/10/08 21:39:03;;;;;;;1.85;1.13;;;;;;;13.25;59.11;101971.22;15477770;28;20042;-50
2023/10/08 21:46:39;;;;;;;0.03;0.03;;;;;;;13.04;59.38;101955.88;15458100;28;20435;-49
2023/10/08 21:54:12;;;;;;;0.80;0.17;;;;;;;13.09;58.76;101968.78;15443623;28;20046;-50
2023/10/08 22:01:46;;;;;;;0.10;0.10;;;;;;;12.83;60.34;101955.94;15489873;28;20068;-51
2023/10/08 22:09:22;;;;;;;0.38;0.22;;;;;;;12.91;58.91;101951.22;15503319;28;20046;-50
2023/10/08 22:16:59;;;;;;;0.00;0.00;;;;;;;13.25;59.51;101952.34;15489846;28;20415;-49
2023/10/08 22:24:33;;;;;;;0.00;0.00;;;;;;;13.19;59.44;101943.13;15439810;28;20151;-49
2023/10/08 22:32:08;;;;;;;0.30;0.25;;;;;;;12.95;62.47;101920.16;15440435;28;20059;-50
2023/10/08 22:39:42;;;;;;;0.22;0.22;;;;;;;12.82;60.58;101916.53;15440055;28;20130;-50
2023/10/08 22:47:21;;;;;;;0.77;0.22;;;;;;;12.32;63.00;101881.56;15469880;28;20455;-49
2023/10/08 22:54:54;;;;;;;0.00;0.00;;;;;;;11.98;61.59;101844.56;15480166;28;20619;-50
2023/10/08 23:02:30;;;;;;;0.00;0.00;;;;;;;11.86;62.68;101832.69;15489131;28;20140;-49
2023/10/08 23:10:06;;;;;;;0.00;0.00;;;;;;;11.66;62.30;101830.59;15486326;28;20050;-50
2023/10/08 23:17:42;;;;;;;0.00;0.00;;;;;;;11.95;62.47;101815.38;15461072;28;20050;-49
2023/10/08 23:25:16;;;;;;;0.00;0.00;;;;;;;12.10;63.33;101818.81;15492843;28;20054;-53
2023/10/08 23:32:53;;;;;;;0.00;0.00;;;;;;;12.10;62.78;101812.63;15448222;28;20093;-50
2023/10/08 23:40:30;;;;;;;0.20;0.20;;;;;;;12.44;63.49;101817.22;15436761;28;20063;-50
2023/10/08 23:48:18;;;;;;;0.00;0.00;;;;;;;12.47;65.25;101833.00;15438453;28;20482;-50
2023/10/08 23:56:03;;;;;;;0.00;0.00;;;;;;;12.44;67.31;101826.13;15435936;28;20043;-50
